KSLE/SLE METAR and TAF weather

Enter ICAO airport designator
Station Type Date Time Source
KSLE METAR 2020/01/22 21:03 UTC NOAA

KSLE 222103Z 18017G27KT 7SM BKN016 BKN049 OVC070 09/06 A3003 RMK AO2 PK WND 19027/2100 T00890061


Station Type Date Time Source
KSLE Decoded METAR 2020/01/22 21:03 UTC NOAA

SALEM MCNARY FIELD, OR, United States (KSLE) 44-54N 123-00W 59M
Jan 22, 2020 - 04:03 PM EST / 2020.01.22 2103 UTC
Wind: from the S (180 degrees) at 20 MPH (17 KT) gusting to 31 MPH (27 KT):0
Visibility: 7 mile(s):0
Sky conditions: overcast
Temperature: 48.0 F (8.9 C)
Dew Point: 43.0 F (6.1 C)
Relative Humidity: 82%
Pressure (altimeter): 30.03 in. Hg (1016 hPa)
ob: KSLE 222103Z 18017G27KT 7SM BKN016 BKN049 OVC070 09/06 A3003 RMK AO2 PK WND 19027/2100 T00890061
cycle: 21

Station Type Date Time Source
KSLE TAF 2020/01/22 18:33 UTC NOAA

TAF KSLE 221731Z 2218/2318 17010KT P6SM -RA BKN035 BKN040 OVC050
TEMPO 2220/2224 -RA BKN028 OVC035
FM230000 17014G21KT 6SM -RA BR OVC025
FM231000 18011KT P6SM -SHRA SCT020 BKN040
FM231300 17011KT 6SM -RA SCT030 OVC050
FM231700 17012KT 4SM -RA BKN025 OVC050

Example: see airport list